Time;durP1;ratioP1;P1;durP2;ratioP2;P2;SDS_P1;SDS_P2;PMS_P1;PMS_P2;Temp;Humidity;BMP_temperature;BMP_pressure;BME280_temperature;BME280_humidity;BME280_pressure;Samples;Min_cycle;Max_cycle;Signal;HPM_P1;HPM_P2
2021/12/02 00:00:43;;;;;;;8.95;2.80;;;6.80;99.90;;;;;;4990664;28;20128;-73
2021/12/02 00:03:10;;;;;;;6.72;1.77;;;6.90;99.90;;;;;;4985767;28;20453;-73
2021/12/02 00:05:37;;;;;;;7.47;1.67;;;6.90;99.90;;;;;;5009053;28;20100;-72
2021/12/02 00:08:04;;;;;;;11.80;1.88;;;6.90;99.90;;;;;;4987319;28;20050;-71
2021/12/02 00:10:34;;;;;;;6.25;1.75;;;6.90;99.90;;;;;;4990744;28;20047;-74
2021/12/02 00:13:02;;;;;;;6.88;1.80;;;6.90;99.90;;;;;;4986139;28;20048;-73
2021/12/02 00:15:41;;;;;;;12.68;2.33;;;6.90;99.90;;;;;;4990852;28;20042;-72
2021/12/02 00:23:47;;;;;;;12.15;1.35;;;6.90;99.90;;;;;;4993271;28;20580;-71
2021/12/02 00:26:17;;;;;;;11.25;2.85;;;6.90;99.90;;;;;;4986653;28;20054;-72
2021/12/02 00:28:46;;;;;;;11.57;2.17;;;6.90;99.90;;;;;;4988369;28;20493;-72
2021/12/02 00:31:20;;;;;;;11.75;1.92;;;6.90;99.90;;;;;;4984992;28;20112;-71
2021/12/02 00:33:53;;;;;;;11.38;2.08;;;6.80;99.90;;;;;;4988313;28;20050;-72
2021/12/02 00:36:24;;;;;;;11.50;2.53;;;6.80;99.90;;;;;;4986759;28;20462;-72
2021/12/02 00:38:52;;;;;;;11.80;2.65;;;6.70;99.90;;;;;;4989136;28;20050;-73
2021/12/02 00:41:23;;;;;;;8.18;2.30;;;6.60;99.90;;;;;;4985517;28;20101;-72
2021/12/02 00:43:51;;;;;;;10.38;1.73;;;6.50;99.90;;;;;;4988522;28;20100;-72
2021/12/02 00:46:20;;;;;;;10.35;1.80;;;6.40;99.90;;;;;;4981747;28;20110;-70
2021/12/02 00:48:48;;;;;;;8.18;1.67;;;6.40;99.90;;;;;;4989747;28;20059;-72
2021/12/02 00:51:16;;;;;;;9.38;1.70;;;6.30;99.90;;;;;;4993194;28;20565;-70
2021/12/02 00:53:51;;;;;;;7.63;1.23;;;6.30;99.90;;;;;;4993282;28;20493;-72
2021/12/02 00:56:23;;;;;;;6.68;1.98;;;6.30;99.90;;;;;;4992387;28;20093;-72
2021/12/02 00:58:51;;;;;;;6.93;1.50;;;6.20;99.90;;;;;;4994287;28;20125;-72
2021/12/02 01:01:25;;;;;;;10.85;1.80;;;6.10;99.90;;;;;;4990948;28;20097;-73
2021/12/02 01:03:58;;;;;;;13.23;1.88;;;6.10;99.90;;;;;;4994257;28;20133;-73
2021/12/02 01:06:26;;;;;;;7.13;1.27;;;6.00;99.90;;;;;;4993441;28;20048;-73
2021/12/02 01:08:54;;;;;;;5.88;1.50;;;6.00;99.90;;;;;;4984916;28;20153;-71
2021/12/02 01:11:21;;;;;;;5.05;1.50;;;5.90;99.90;;;;;;4985178;28;20477;-72
2021/12/02 01:13:48;;;;;;;8.25;1.30;;;5.90;99.90;;;;;;5006961;28;20108;-72
2021/12/02 01:16:16;;;;;;;8.93;1.50;;;5.90;99.90;;;;;;4991579;28;20042;-73
2021/12/02 01:18:43;;;;;;;9.45;1.65;;;5.80;99.90;;;;;;4991504;28;20042;-71
2021/12/02 01:21:21;;;;;;;5.10;1.30;;;5.80;99.90;;;;;;4993090;28;20054;-73
2021/12/02 01:24:09;;;;;;;5.68;1.38;;;5.80;99.90;;;;;;4993252;28;20112;-71
2021/12/02 01:26:36;;;;;;;7.97;1.88;;;5.70;99.90;;;;;;5006658;28;20173;-71
2021/12/02 01:29:04;;;;;;;13.98;2.38;;;5.70;99.90;;;;;;4992829;28;20132;-71
2021/12/02 01:31:34;;;;;;;9.18;1.77;;;5.70;99.90;;;;;;4992940;28;20508;-71
2021/12/02 01:34:08;;;;;;;11.52;1.90;;;5.70;99.90;;;;;;4991846;28;20132;-73
2021/12/02 01:36:37;;;;;;;7.03;1.38;;;5.70;99.90;;;;;;4988564;28;20063;-73
2021/12/02 01:39:05;;;;;;;9.73;1.50;;;5.70;99.90;;;;;;5005075;28;20650;-73
2021/12/02 01:41:42;;;;;;;7.57;1.45;;;5.60;99.90;;;;;;4992591;28;20465;-72
2021/12/02 01:44:12;;;;;;;6.32;1.38;;;5.60;99.90;;;;;;4990513;28;20634;-73
2021/12/02 01:46:41;;;;;;;7.75;2.30;;;5.60;99.90;;;;;;4986462;28;20102;-73
2021/12/02 01:49:11;;;;;;;12.65;1.50;;;5.50;99.90;;;;;;4989289;28;20042;-73
2021/12/02 01:51:40;;;;;;;7.20;1.70;;;5.40;99.90;;;;;;4985818;28;20525;-73
2021/12/02 01:54:10;;;;;;;7.68;1.52;;;5.30;99.90;;;;;;4990605;28;20081;-72
2021/12/02 01:56:50;;;;;;;6.88;1.73;;;5.30;99.90;;;;;;4992385;28;20100;-71
2021/12/02 01:59:24;;;;;;;5.00;1.50;;;5.30;99.90;;;;;;4989254;28;20101;-72
2021/12/02 02:01:56;;;;;;;6.90;2.10;;;5.20;99.90;;;;;;5000713;28;20113;-71
2021/12/02 02:04:25;;;;;;;11.20;2.17;;;5.20;99.90;;;;;;4986910;28;20736;-73
2021/12/02 02:07:03;;;;;;;11.10;1.67;;;5.10;99.90;;;;;;4986830;28;20077;-72
2021/12/02 02:09:33;;;;;;;9.25;2.13;;;5.10;99.90;;;;;;4986637;28;20050;-72
2021/12/02 02:12:11;;;;;;;5.93;1.60;;;5.00;99.90;;;;;;4990910;28;20050;-71
2021/12/02 02:14:41;;;;;;;13.88;2.17;;;5.00;99.90;;;;;;4982488;28;20514;-71
2021/12/02 02:17:17;;;;;;;7.65;1.67;;;4.90;99.90;;;;;;4992102;28;20461;-70
2021/12/02 02:19:45;;;;;;;8.35;1.92;;;4.90;99.90;;;;;;4990815;28;20080;-70
2021/12/02 02:22:13;;;;;;;10.18;1.80;;;4.90;99.90;;;;;;4991494;28;20108;-72
2021/12/02 02:24:40;;;;;;;11.27;2.33;;;4.90;99.90;;;;;;4985127;28;20054;-71
2021/12/02 02:27:07;;;;;;;16.25;2.35;;;4.90;99.90;;;;;;4989265;28;20149;-73
2021/12/02 02:29:34;;;;;;;11.02;2.13;;;4.90;99.90;;;;;;4991202;28;20046;-73
2021/12/02 02:32:00;;;;;;;15.50;2.13;;;4.90;99.90;;;;;;4991667;28;20038;-71
2021/12/02 02:34:28;;;;;;;14.32;2.42;;;4.90;99.90;;;;;;4991798;28;20457;-71
2021/12/02 02:36:55;;;;;;;15.35;2.05;;;4.90;99.90;;;;;;4988584;28;20128;-73
2021/12/02 02:39:22;;;;;;;12.98;1.98;;;4.90;99.90;;;;;;4991421;28;20051;-71
2021/12/02 02:41:56;;;;;;;12.75;2.03;;;5.10;99.90;;;;;;4991122;28;20854;-71
2021/12/02 02:44:24;;;;;;;13.25;2.55;;;5.10;99.90;;;;;;4991320;28;20765;-72
2021/12/02 02:46:51;;;;;;;14.07;2.67;;;5.10;99.90;;;;;;4989569;28;20058;-71
2021/12/02 02:49:19;;;;;;;8.65;1.98;;;5.10;99.90;;;;;;4991981;28;20046;-70
2021/12/02 02:51:46;;;;;;;19.38;2.40;;;5.10;99.90;;;;;;4991177;28;20046;-71
2021/12/02 02:54:16;;;;;;;17.52;2.53;;;5.10;99.90;;;;;;4991613;28;20046;-72
2021/12/02 02:56:55;;;;;;;20.67;1.85;;;5.10;99.90;;;;;;4987567;28;20050;-71
2021/12/02 03:02:25;;;;;;;12.38;2.08;;;5.20;99.90;;;;;;4987141;28;20054;-71
2021/12/02 03:05:06;;;;;;;12.73;2.33;;;5.10;99.90;;;;;;4988549;28;20054;-72
2021/12/02 03:07:42;;;;;;;10.68;2.22;;;5.10;99.90;;;;;;4987513;28;20514;-72
2021/12/02 03:10:38;;;;;;;12.10;1.98;;;5.20;99.90;;;;;;4985285;28;20050;-70
2021/12/02 03:18:28;;;;;;;12.50;2.43;;;5.00;99.90;;;;;;4992232;28;20053;-71
2021/12/02 03:20:56;;;;;;;15.75;1.90;;;5.00;99.90;;;;;;4988537;28;20054;-71
2021/12/02 03:23:23;;;;;;;15.95;1.80;;;5.10;99.90;;;;;;4983919;28;20079;-72
2021/12/02 03:25:51;;;;;;;7.70;1.45;;;5.10;99.90;;;;;;4990672;28;20511;-72
2021/12/02 03:28:18;;;;;;;11.15;1.80;;;5.10;99.90;;;;;;4991212;28;20051;-72
2021/12/02 03:30:45;;;;;;;16.25;2.03;;;5.20;99.90;;;;;;4988911;28;20086;-73
2021/12/02 03:33:12;;;;;;;12.82;1.70;;;5.10;99.90;;;;;;4990571;28;20105;-71
2021/12/02 03:35:43;;;;;;;20.05;2.85;;;5.00;99.90;;;;;;4992168;28;20557;-71
2021/12/02 03:38:15;;;;;;;13.18;1.73;;;5.10;99.90;;;;;;4985247;28;20506;-70
2021/12/02 03:40:42;;;;;;;6.05;1.38;;;5.00;99.90;;;;;;5003772;28;20477;-72
2021/12/02 03:43:09;;;;;;;29.58;3.25;;;5.00;99.90;;;;;;4990650;28;20485;-73
2021/12/02 03:45:49;;;;;;;13.75;1.90;;;5.00;99.90;;;;;;4986414;28;20061;-72
2021/12/02 03:48:16;;;;;;;7.60;1.70;;;4.80;99.90;;;;;;4990645;28;20050;-71
2021/12/02 03:50:43;;;;;;;20.02;1.80;;;4.80;99.90;;;;;;4979487;28;20109;-72
2021/12/02 03:53:10;;;;;;;10.75;1.85;;;4.70;99.90;;;;;;4991913;28;20050;-72
2021/12/02 03:55:37;;;;;;;8.80;2.22;;;4.70;99.90;;;;;;4983936;28;20042;-72
2021/12/02 03:58:04;;;;;;;14.35;1.95;;;4.60;99.90;;;;;;5005019;28;20514;-71
2021/12/02 04:00:31;;;;;;;6.72;1.45;;;4.50;99.90;;;;;;4991480;28;20101;-72
2021/12/02 04:02:58;;;;;;;12.18;1.73;;;4.50;99.90;;;;;;4988128;28;20525;-71
2021/12/02 04:05:25;;;;;;;10.98;1.60;;;4.40;99.90;;;;;;4989771;28;20042;-72
2021/12/02 04:07:52;;;;;;;14.55;2.45;;;4.40;99.90;;;;;;4989180;28;20046;-70
2021/12/02 04:10:20;;;;;;;15.00;2.05;;;4.30;99.90;;;;;;4988565;28;20430;-73
2021/12/02 04:13:07;;;;;;;13.75;1.80;;;4.20;99.90;;;;;;4986765;28;20054;-72
2021/12/02 04:15:37;;;;;;;17.50;1.80;;;4.20;99.90;;;;;;4990148;28;20049;-72
2021/12/02 04:18:04;;;;;;;13.60;1.80;;;4.10;99.90;;;;;;4990805;28;20074;-72
2021/12/02 04:20:31;;;;;;;21.08;1.80;;;4.10;99.90;;;;;;4989127;28;20047;-71
2021/12/02 04:22:58;;;;;;;13.77;2.00;;;4.00;99.90;;;;;;4990934;28;20049;-72
2021/12/02 04:25:26;;;;;;;11.07;2.03;;;3.90;99.90;;;;;;4977924;28;20097;-72
2021/12/02 04:27:54;;;;;;;9.68;2.03;;;3.90;99.90;;;;;;4983239;28;20042;-71
2021/12/02 04:30:26;;;;;;;10.50;1.80;;;3.90;99.90;;;;;;4987432;28;20081;-71
2021/12/02 04:32:54;;;;;;;9.90;1.88;;;3.80;99.90;;;;;;5002011;28;20682;-72
2021/12/02 04:35:21;;;;;;;13.73;2.20;;;3.80;99.90;;;;;;4988305;28;20104;-73
2021/12/02 04:37:51;;;;;;;12.55;2.45;;;3.80;99.90;;;;;;4989177;28;20134;-73
2021/12/02 04:40:20;;;;;;;21.75;2.40;;;3.80;99.90;;;;;;4991911;28;20051;-74
2021/12/02 04:42:49;;;;;;;18.27;2.45;;;3.80;99.90;;;;;;4990244;28;20070;-72
2021/12/02 04:45:16;;;;;;;20.52;2.67;;;3.90;99.90;;;;;;4991214;28;20105;-73
2021/12/02 04:47:43;;;;;;;11.85;1.88;;;4.00;99.90;;;;;;4993605;28;20798;-71
2021/12/02 04:50:10;;;;;;;15.63;2.53;;;3.90;99.90;;;;;;5001843;28;20534;-72
2021/12/02 04:52:37;;;;;;;14.23;1.88;;;3.80;99.90;;;;;;4989957;28;20042;-73
2021/12/02 04:55:06;;;;;;;14.82;2.33;;;3.80;99.90;;;;;;4989420;28;20510;-72
2021/12/02 04:57:33;;;;;;;16.88;2.40;;;3.70;99.90;;;;;;4992060;28;20038;-72
2021/12/02 05:00:00;;;;;;;17.40;2.55;;;3.70;99.90;;;;;;4991715;28;20054;-72
2021/12/02 05:02:27;;;;;;;21.02;2.28;;;3.70;99.90;;;;;;4990773;28;20399;-73
2021/12/02 05:04:54;;;;;;;17.73;2.17;;;3.70;99.90;;;;;;4990893;28;20514;-73
2021/12/02 05:07:21;;;;;;;18.58;2.33;;;3.60;99.90;;;;;;4983283;28;20046;-73
2021/12/02 05:09:48;;;;;;;12.40;2.30;;;3.60;99.90;;;;;;4991058;28;20078;-72
2021/12/02 05:12:15;;;;;;;7.18;1.60;;;3.60;99.90;;;;;;4979193;28;20046;-73
2021/12/02 05:14:42;;;;;;;19.58;2.28;;;3.60;99.90;;;;;;5001550;28;20081;-71
2021/12/02 05:17:09;;;;;;;21.52;2.95;;;3.40;99.90;;;;;;4987847;28;20427;-72
2021/12/02 05:19:36;;;;;;;12.30;1.80;;;3.30;99.90;;;;;;4985608;28;20047;-73
2021/12/02 05:22:03;;;;;;;23.88;2.28;;;3.30;99.90;;;;;;4988308;28;20055;-71
2021/12/02 05:24:30;;;;;;;15.60;1.55;;;3.20;99.90;;;;;;4988109;28;20054;-71
2021/12/02 05:26:57;;;;;;;12.32;1.80;;;3.10;99.90;;;;;;4991922;28;20082;-71
2021/12/02 05:29:24;;;;;;;21.35;2.28;;;3.10;99.90;;;;;;4990007;28;20054;-72
2021/12/02 05:31:51;;;;;;;14.30;1.85;;;3.10;99.90;;;;;;4992897;28;20043;-72
2021/12/02 05:34:18;;;;;;;12.25;1.83;;;3.10;99.90;;;;;;4993154;28;20081;-71
2021/12/02 05:36:45;;;;;;;7.28;1.50;;;3.20;99.90;;;;;;4990574;28;20077;-72
2021/12/02 05:39:11;;;;;;;14.65;2.00;;;3.30;99.90;;;;;;4989819;28;20093;-70
2021/12/02 05:41:38;;;;;;;15.13;1.67;;;3.30;99.90;;;;;;4993032;28;20577;-73
2021/12/02 05:44:05;;;;;;;16.30;2.58;;;3.30;99.90;;;;;;4991598;28;20100;-72
2021/12/02 05:46:33;;;;;;;17.13;2.13;;;3.30;99.90;;;;;;4992398;28;20093;-72
2021/12/02 05:49:00;;;;;;;13.93;2.33;;;3.30;99.90;;;;;;4991819;28;20093;-72
2021/12/02 05:51:27;;;;;;;15.85;1.88;;;3.10;99.90;;;;;;4991444;28;20710;-72
2021/12/02 05:53:54;;;;;;;18.23;1.83;;;3.20;99.90;;;;;;4993015;28;20042;-71
2021/12/02 05:56:21;;;;;;;14.52;1.90;;;3.20;99.90;;;;;;4992341;28;20093;-72
2021/12/02 05:58:48;;;;;;;14.70;2.17;;;3.20;99.90;;;;;;4990956;28;20108;-74
2021/12/02 06:01:14;;;;;;;12.80;2.55;;;3.20;99.90;;;;;;4989793;28;20101;-71
2021/12/02 06:03:41;;;;;;;15.38;1.70;;;3.10;99.90;;;;;;4993217;28;20093;-71
2021/12/02 06:06:08;;;;;;;24.98;3.42;;;3.10;99.90;;;;;;4989200;28;20042;-73
2021/12/02 06:08:36;;;;;;;12.23;2.45;;;3.00;99.90;;;;;;5003146;28;20043;-71
2021/12/02 06:11:03;;;;;;;13.68;2.58;;;3.00;99.90;;;;;;4990240;28;20093;-73
2021/12/02 06:13:30;;;;;;;12.68;2.38;;;3.00;99.90;;;;;;4988748;28;20051;-72
2021/12/02 06:15:57;;;;;;;12.40;2.40;;;3.00;99.90;;;;;;4986825;28;20457;-72
2021/12/02 06:18:24;;;;;;;13.35;2.40;;;3.00;99.90;;;;;;4986466;28;20069;-70
2021/12/02 06:20:53;;;;;;;11.40;2.10;;;3.00;99.90;;;;;;4984327;28;20042;-71
2021/12/02 06:23:22;;;;;;;13.88;2.80;;;3.10;99.90;;;;;;4991904;28;20101;-74
2021/12/02 06:25:49;;;;;;;15.43;2.53;;;3.10;99.90;;;;;;4991907;28;20043;-71
2021/12/02 06:28:18;;;;;;;13.60;2.17;;;3.10;99.90;;;;;;4993225;28;20054;-72
2021/12/02 06:30:45;;;;;;;8.38;2.10;;;3.10;99.90;;;;;;4989688;28;20046;-73
2021/12/02 06:33:14;;;;;;;14.90;2.63;;;3.10;99.90;;;;;;4989799;28;20047;-71
2021/12/02 06:35:43;;;;;;;16.27;2.42;;;3.10;99.90;;;;;;4989959;28;20054;-73
2021/12/02 06:38:11;;;;;;;18.70;1.98;;;3.10;99.90;;;;;;4988004;28;20532;-73
2021/12/02 06:40:40;;;;;;;16.30;2.80;;;3.20;99.90;;;;;;4988541;28;20051;-71
2021/12/02 06:43:07;;;;;;;22.63;2.45;;;3.20;99.90;;;;;;4982875;28;20102;-73
2021/12/02 06:45:34;;;;;;;10.40;1.73;;;3.20;99.90;;;;;;4989716;28;20509;-71
2021/12/02 06:48:01;;;;;;;14.27;1.98;;;3.10;99.90;;;;;;4988478;28;20054;-71
2021/12/02 06:50:30;;;;;;;10.80;1.85;;;3.00;99.90;;;;;;4991904;28;20109;-70
2021/12/02 06:52:57;;;;;;;14.57;2.08;;;2.90;99.90;;;;;;4989146;28;20085;-72
2021/12/02 06:55:24;;;;;;;11.98;1.67;;;2.80;99.90;;;;;;4988030;28;20093;-71
2021/12/02 06:57:51;;;;;;;13.55;1.75;;;2.80;99.90;;;;;;4987727;28;20074;-71
2021/12/02 07:00:20;;;;;;;14.40;2.80;;;2.70;99.90;;;;;;4982651;28;20546;-72
2021/12/02 07:02:48;;;;;;;15.95;2.72;;;2.60;99.90;;;;;;4992376;28;20514;-71
2021/12/02 07:05:22;;;;;;;13.93;2.30;;;2.60;99.90;;;;;;4992395;28;20533;-71
2021/12/02 07:07:49;;;;;;;14.10;2.17;;;2.40;99.90;;;;;;4986240;28;20054;-71
2021/12/02 07:10:23;;;;;;;20.98;3.05;;;2.30;99.90;;;;;;5000734;28;20596;-73
2021/12/02 07:12:55;;;;;;;8.23;1.80;;;2.20;99.90;;;;;;4985883;28;20046;-72
2021/12/02 07:15:30;;;;;;;18.67;3.13;;;2.20;99.90;;;;;;4982041;28;20046;-71
2021/12/02 07:17:58;;;;;;;15.85;2.78;;;2.10;99.90;;;;;;5000021;28;20104;-73
2021/12/02 07:20:36;;;;;;;13.25;3.97;;;2.20;99.90;;;;;;4986095;28;20604;-72
2021/12/02 07:23:03;;;;;;;16.40;3.40;;;2.20;99.90;;;;;;4985597;28;20471;-72
2021/12/02 07:25:32;;;;;;;16.83;3.08;;;2.20;99.90;;;;;;4990732;28;20077;-71
2021/12/02 07:27:59;;;;;;;14.40;3.13;;;2.20;99.90;;;;;;4992465;28;20462;-71
2021/12/02 07:30:26;;;;;;;12.77;3.28;;;2.30;99.90;;;;;;4988753;28;20046;-72
2021/12/02 07:32:57;;;;;;;11.18;2.88;;;2.40;99.90;;;;;;4992110;28;20047;-71
2021/12/02 07:35:25;;;;;;;15.48;3.40;;;2.40;99.90;;;;;;4992726;28;20042;-71
2021/12/02 07:37:55;;;;;;;19.00;3.00;;;2.50;99.90;;;;;;4991416;28;20073;-71
2021/12/02 07:40:24;;;;;;;14.07;2.85;;;2.40;99.90;;;;;;4983178;28;20703;-71
2021/12/02 07:42:52;;;;;;;10.90;2.40;;;2.40;99.90;;;;;;4989649;28;20544;-73
2021/12/02 07:45:23;;;;;;;15.18;2.58;;;2.30;99.90;;;;;;4990490;28;20653;-71
2021/12/02 07:47:50;;;;;;;10.43;1.95;;;2.20;99.90;;;;;;4990653;28;20066;-70
2021/12/02 07:50:18;;;;;;;11.35;1.80;;;2.20;99.90;;;;;;4985841;28;20054;-71
2021/12/02 07:52:58;;;;;;;11.40;2.15;;;2.30;99.90;;;;;;4985933;28;20965;-72
2021/12/02 07:55:25;;;;;;;7.07;1.83;;;2.30;99.90;;;;;;4991609;28;20050;-71
2021/12/02 07:57:53;;;;;;;12.25;2.13;;;2.40;99.90;;;;;;4990960;28;20082;-72
2021/12/02 08:00:27;;;;;;;11.65;2.28;;;2.50;99.90;;;;;;4987372;28;20078;-72
2021/12/02 08:02:55;;;;;;;13.30;2.42;;;2.70;99.90;;;;;;4986247;28;20051;-71
2021/12/02 08:05:25;;;;;;;13.50;2.78;;;2.90;99.90;;;;;;4990358;28;20055;-71
2021/12/02 08:07:53;;;;;;;12.18;2.40;;;3.00;99.90;;;;;;4986889;28;20054;-71
2021/12/02 08:10:21;;;;;;;34.67;4.80;;;3.10;99.90;;;;;;4990888;28;20038;-70
2021/12/02 08:12:50;;;;;;;12.07;2.33;;;3.10;99.90;;;;;;4986331;28;20565;-72
2021/12/02 08:15:21;;;;;;;20.85;4.22;;;3.10;99.90;;;;;;4987347;28;20132;-71
2021/12/02 08:17:48;;;;;;;11.57;3.38;;;3.20;99.90;;;;;;4988308;28;20065;-71
2021/12/02 08:20:17;;;;;;;17.25;3.70;;;3.20;99.90;;;;;;4988832;28;20042;-71
2021/12/02 08:22:44;;;;;;;15.43;2.70;;;3.20;99.90;;;;;;4989804;28;20125;-71
2021/12/02 08:25:12;;;;;;;16.25;2.83;;;3.30;99.90;;;;;;4985734;28;20047;-72
2021/12/02 08:27:40;;;;;;;12.20;2.50;;;3.30;99.90;;;;;;4991274;28;20093;-73
2021/12/02 08:30:10;;;;;;;9.40;2.67;;;3.30;99.90;;;;;;4988601;28;20065;-71
2021/12/02 08:32:40;;;;;;;17.08;3.42;;;3.30;99.90;;;;;;4995070;28;20050;-72
2021/12/02 08:35:08;;;;;;;18.05;3.30;;;3.40;99.90;;;;;;4993067;28;20042;-72
2021/12/02 08:37:38;;;;;;;23.90;6.78;;;3.50;99.90;;;;;;4992338;28;20046;-72
2021/12/02 08:40:07;;;;;;;20.70;6.38;;;3.50;99.90;;;;;;4992503;28;20124;-72
2021/12/02 08:42:34;;;;;;;21.65;6.18;;;3.50;99.90;;;;;;4989467;28;20535;-72
2021/12/02 08:45:01;;;;;;;22.05;5.53;;;3.60;99.90;;;;;;4986137;28;20050;-73
2021/12/02 08:47:28;;;;;;;23.98;6.13;;;3.70;99.90;;;;;;4988500;28;20105;-72
2021/12/02 08:49:56;;;;;;;29.67;9.20;;;3.80;99.90;;;;;;4989058;28;20097;-71
2021/12/02 08:52:26;;;;;;;25.77;7.00;;;3.90;99.90;;;;;;4987060;28;20050;-73
2021/12/02 08:54:55;;;;;;;27.80;7.38;;;4.00;99.90;;;;;;5004612;28;20059;-71
2021/12/02 08:57:41;;;;;;;17.38;5.05;;;4.10;99.90;;;;;;4986944;28;20074;-71
2021/12/02 09:00:13;;;;;;;17.80;5.03;;;4.30;99.90;;;;;;4988306;28;20097;-71
2021/12/02 09:02:40;;;;;;;24.13;8.90;;;4.40;99.90;;;;;;4985274;28;20046;-71
2021/12/02 09:05:08;;;;;;;23.30;4.28;;;4.40;99.90;;;;;;4985592;28;20050;-70
2021/12/02 09:07:36;;;;;;;22.77;4.68;;;4.50;99.90;;;;;;4987119;28;20046;-71
2021/12/02 09:10:07;;;;;;;42.67;16.75;;;4.70;99.90;;;;;;4986809;28;20043;-72
2021/12/02 09:12:35;;;;;;;36.00;13.70;;;4.90;99.90;;;;;;5006093;28;20050;-72
2021/12/02 09:15:04;;;;;;;26.10;8.35;;;5.10;99.90;;;;;;4988366;28;20474;-71
2021/12/02 09:17:31;;;;;;;18.83;6.15;;;5.10;99.90;;;;;;4981552;28;20050;-72
2021/12/02 09:19:58;;;;;;;17.38;4.03;;;5.20;99.90;;;;;;4987669;28;20518;-73
2021/12/02 09:22:25;;;;;;;41.92;14.82;;;5.10;99.90;;;;;;4990229;28;20584;-71
2021/12/02 09:24:52;;;;;;;27.77;11.27;;;5.10;99.90;;;;;;4985730;28;20141;-71
2021/12/02 09:27:19;;;;;;;12.50;3.50;;;5.20;99.90;;;;;;4989925;28;20046;-74
2021/12/02 09:29:46;;;;;;;10.60;2.33;;;5.40;99.90;;;;;;4985066;28;20109;-72
2021/12/02 09:32:13;;;;;;;9.43;1.40;;;5.80;99.90;;;;;;4982953;28;20132;-72
2021/12/02 09:34:40;;;;;;;6.68;1.50;;;6.30;99.90;;;;;;4984870;28;20042;-73
2021/12/02 09:37:07;;;;;;;9.10;1.20;;;6.70;99.90;;;;;;4985784;28;20054;-72
2021/12/02 09:39:34;;;;;;;10.77;1.20;;;7.10;99.90;;;;;;4985551;28;20573;-72
2021/12/02 09:42:05;;;;;;;5.35;1.10;;;7.40;99.90;;;;;;4988037;28;20043;-72
2021/12/02 09:44:47;;;;;;;6.55;1.35;;;7.60;99.90;;;;;;4986108;28;20062;-72
2021/12/02 09:47:16;;;;;;;9.65;1.65;;;7.70;99.90;;;;;;4983078;28;20816;-73
2021/12/02 09:49:44;;;;;;;5.55;0.70;;;7.80;99.90;;;;;;4986352;28;20477;-72
2021/12/02 09:52:14;;;;;;;4.25;0.77;;;8.00;99.90;;;;;;5006125;28;20054;-72
2021/12/02 09:54:46;;;;;;;6.72;0.70;;;8.10;99.90;;;;;;4988537;28;20116;-72
2021/12/02 09:57:17;;;;;;;9.65;1.00;;;8.20;99.90;;;;;;4991415;28;20916;-72
2021/12/02 10:02:15;;;;;;;7.80;1.00;;;8.10;99.90;;;;;;4993516;28;20526;-72
2021/12/02 10:04:58;;;;;;;4.45;1.27;;;8.10;99.90;;;;;;4990059;28;20093;-71
2021/12/02 10:10:12;;;;;;;4.95;1.30;;;7.10;99.90;;;;;;4987908;28;20046;-74
2021/12/02 10:12:51;;;;;;;12.05;1.50;;;6.70;99.90;;;;;;5005432;28;20548;-74
2021/12/02 10:15:19;;;;;;;9.95;1.20;;;6.50;99.90;;;;;;4988568;28;20054;-75
2021/12/02 10:17:49;;;;;;;22.92;1.42;;;6.40;99.90;;;;;;4987108;28;20434;-73
2021/12/02 10:23:23;;;;;;;8.18;1.50;;;6.40;99.90;;;;;;4993491;28;20477;-73
2021/12/02 10:26:05;;;;;;;7.03;1.33;;;6.50;99.90;;;;;;4991598;28;20097;-73
2021/12/02 10:28:41;;;;;;;12.77;1.65;;;6.60;99.90;;;;;;4989317;28;20506;-73
2021/12/02 10:31:10;;;;;;;11.50;1.23;;;6.60;99.90;;;;;;4991586;28;20073;-73
2021/12/02 10:33:42;;;;;;;8.32;1.23;;;6.70;99.90;;;;;;4992595;28;20054;-73
2021/12/02 10:36:29;;;;;;;1.58;0.52;;;6.90;99.90;;;;;;4987241;28;20058;-73
2021/12/02 10:39:08;;;;;;;2.00;0.47;;;7.00;99.90;;;;;;4996037;28;20042;-72
2021/12/02 10:41:35;;;;;;;5.78;1.13;;;7.00;99.90;;;;;;4987868;28;20097;-74
2021/12/02 10:44:16;;;;;;;15.75;1.30;;;6.90;99.90;;;;;;4991683;28;20054;-74
2021/12/02 10:47:03;;;;;;;15.52;1.80;;;6.60;99.90;;;;;;4991052;28;20099;-75
2021/12/02 10:49:53;;;;;;;2.80;0.90;;;6.30;99.90;;;;;;4989495;28;20675;-75
2021/12/02 10:52:30;;;;;;;6.22;1.02;;;6.00;99.90;;;;;;5004672;28;20050;-77
2021/12/02 10:55:00;;;;;;;10.98;1.35;;;5.70;99.90;;;;;;4990861;28;20055;-77
2021/12/02 10:57:29;;;;;;;8.23;1.52;;;5.60;99.90;;;;;;4991380;28;20054;-75
2021/12/02 11:00:03;;;;;;;5.65;1.38;;;5.50;99.90;;;;;;4991344;28;20107;-74
2021/12/02 11:02:35;;;;;;;12.93;2.20;;;5.50;99.90;;;;;;4991615;28;20408;-75
2021/12/02 11:05:18;;;;;;;10.05;1.63;;;5.60;99.90;;;;;;4989597;28;20677;-75
2021/12/02 11:07:52;;;;;;;7.57;1.70;;;5.60;99.90;;;;;;4990697;28;20054;-73
2021/12/02 11:10:19;;;;;;;10.35;2.80;;;5.70;99.90;;;;;;4983960;28;20174;-74
2021/12/02 11:12:48;;;;;;;6.57;1.52;;;5.80;99.90;;;;;;4991185;28;20089;-74
2021/12/02 11:15:24;;;;;;;8.93;1.95;;;5.90;99.90;;;;;;4991596;28;20070;-78
2021/12/02 11:18:01;;;;;;;3.27;1.20;;;6.00;99.90;;;;;;4987265;28;20446;-73
2021/12/02 11:20:59;;;;;;;6.20;1.50;;;6.10;99.90;;;;;;4987203;28;20050;-73
2021/12/02 11:23:36;;;;;;;3.58;1.33;;;5.90;99.90;;;;;;4982360;28;20518;-74
2021/12/02 11:26:16;;;;;;;8.57;1.65;;;5.70;99.90;;;;;;4989212;28;20097;-75
2021/12/02 11:28:43;;;;;;;5.90;1.20;;;5.60;99.90;;;;;;4989350;28;20085;-75
2021/12/02 11:31:14;;;;;;;5.93;1.70;;;5.40;99.90;;;;;;4991113;28;20577;-76
2021/12/02 11:33:43;;;;;;;7.15;2.13;;;5.40;99.90;;;;;;5007042;28;20562;-74
2021/12/02 11:36:23;;;;;;;7.80;2.33;;;5.40;99.90;;;;;;4987415;28;20051;-73
2021/12/02 11:38:52;;;;;;;11.77;4.95;;;5.30;99.90;;;;;;4988324;28;20077;-74
2021/12/02 11:41:20;;;;;;;5.78;2.67;;;5.30;99.90;;;;;;4988872;28;20050;-74
2021/12/02 11:43:47;;;;;;;10.82;2.17;;;5.30;99.90;;;;;;4989269;28;20050;-74
2021/12/02 11:46:14;;;;;;;3.55;1.67;;;5.30;99.90;;;;;;5004266;28;20518;-73
2021/12/02 11:48:43;;;;;;;6.53;1.52;;;5.20;99.90;;;;;;4989213;28;20101;-73
2021/12/02 11:51:13;;;;;;;11.82;2.60;;;5.20;99.90;;;;;;4990660;28;20049;-73
2021/12/02 11:53:40;;;;;;;6.68;2.13;;;5.10;99.90;;;;;;4987550;28;20093;-73
2021/12/02 11:56:10;;;;;;;7.80;2.00;;;5.10;99.90;;;;;;4993301;28;20058;-74
2021/12/02 11:58:38;;;;;;;5.10;1.58;;;5.00;99.90;;;;;;4992952;28;20050;-73
2021/12/02 12:01:07;;;;;;;4.20;1.83;;;5.00;99.90;;;;;;4993055;28;20054;-74
2021/12/02 12:03:44;;;;;;;10.40;3.25;;;5.00;99.90;;;;;;4994525;28;20105;-75
2021/12/02 12:06:26;;;;;;;6.32;2.00;;;5.10;99.90;;;;;;4994734;28;20050;-73
2021/12/02 12:08:55;;;;;;;9.38;3.30;;;5.10;99.90;;;;;;4990884;28;20051;-74
2021/12/02 12:11:29;;;;;;;7.72;2.80;;;5.20;99.90;;;;;;4994798;28;20046;-72
2021/12/02 12:13:59;;;;;;;10.90;2.85;;;5.20;99.90;;;;;;4989100;28;20046;-73
2021/12/02 12:16:29;;;;;;;14.90;4.65;;;5.30;99.90;;;;;;4993899;28;20426;-73
2021/12/02 12:19:13;;;;;;;33.35;14.02;;;5.40;99.90;;;;;;4990388;28;20046;-74
2021/12/02 12:21:41;;;;;;;8.38;3.63;;;5.40;99.90;;;;;;4988184;28;20114;-74
2021/12/02 12:24:09;;;;;;;6.50;2.20;;;5.50;99.90;;;;;;4993851;28;20058;-73
2021/12/02 12:26:43;;;;;;;9.18;2.47;;;5.60;99.90;;;;;;4995026;28;20522;-74
2021/12/02 12:29:09;;;;;;;7.53;2.25;;;5.60;99.90;;;;;;4991886;28;20050;-73
2021/12/02 12:32:11;;;;;;;7.55;1.80;;;5.70;99.90;;;;;;4993227;28;20128;-72
2021/12/02 12:37:22;;;;;;;7.38;2.42;;;5.80;99.90;;;;;;4990048;28;20576;-73
2021/12/02 12:40:08;;;;;;;6.15;1.83;;;5.90;99.90;;;;;;4991113;28;20089;-73
2021/12/02 12:42:38;;;;;;;7.32;1.42;;;5.90;99.90;;;;;;4985409;28;20047;-73
2021/12/02 12:45:09;;;;;;;5.15;1.48;;;5.90;99.90;;;;;;4987238;28;20050;-73
2021/12/02 12:47:46;;;;;;;7.22;1.30;;;6.00;99.90;;;;;;4990347;28;20054;-73
2021/12/02 12:50:32;;;;;;;4.05;1.55;;;6.00;99.90;;;;;;4987684;28;20430;-73
2021/12/02 12:53:05;;;;;;;6.00;1.17;;;6.20;99.90;;;;;;4987443;28;20074;-75
2021/12/02 12:55:33;;;;;;;8.93;1.38;;;6.30;99.90;;;;;;4987972;28;20069;-73
2021/12/02 12:58:16;;;;;;;2.88;1.17;;;6.30;99.90;;;;;;4988392;28;20061;-73
2021/12/02 13:00:53;;;;;;;5.20;0.95;;;6.40;99.90;;;;;;4984890;28;20605;-73
2021/12/02 13:03:28;;;;;;;6.15;1.08;;;6.50;99.90;;;;;;4987040;28;20053;-73
2021/12/02 13:06:02;;;;;;;3.35;1.17;;;6.60;99.90;;;;;;4989531;28;20510;-73
2021/12/02 13:08:36;;;;;;;7.35;1.00;;;6.70;99.90;;;;;;4991624;28;20101;-73
2021/12/02 13:11:16;;;;;;;7.88;1.20;;;6.90;99.90;;;;;;4980658;28;20054;-74
2021/12/02 13:13:45;;;;;;;4.95;1.23;;;7.00;99.90;;;;;;4990135;28;20059;-73
2021/12/02 13:16:21;;;;;;;11.82;1.20;;;7.00;99.90;;;;;;4985730;28;20133;-73
2021/12/02 13:18:53;;;;;;;;;;;6.90;99.90;;;;;;4987980;28;20137;-73
2021/12/02 13:21:32;;;;;;;6.05;1.23;;;6.90;99.90;;;;;;4986449;28;20405;-73
2021/12/02 13:24:07;;;;;;;7.28;1.52;;;6.80;99.90;;;;;;4990081;28;20047;-73
2021/12/02 13:27:00;;;;;;;11.68;1.42;;;6.60;99.90;;;;;;4992446;28;20414;-73
2021/12/02 13:29:30;;;;;;;7.95;1.35;;;6.50;99.90;;;;;;4988796;28;20054;-73
2021/12/02 13:32:08;;;;;;;9.45;1.30;;;6.60;99.90;;;;;;4987327;28;20046;-74